createdAt,value
2022-08-11T00:00:19.719Z,19.95
2022-08-11T00:01:19.726Z,19.92
2022-08-11T00:02:19.753Z,19.86
2022-08-11T00:03:19.811Z,19.82
2022-08-11T00:04:19.748Z,19.77
2022-08-11T00:05:19.729Z,19.73
2022-08-11T00:06:19.729Z,19.66
2022-08-11T00:07:19.743Z,19.62
2022-08-11T00:08:19.728Z,19.59
2022-08-11T00:09:19.774Z,19.57
2022-08-11T00:10:19.726Z,19.55
2022-08-11T00:11:19.744Z,19.53
2022-08-11T00:12:19.739Z,19.48
2022-08-11T00:13:19.739Z,19.45
2022-08-11T00:14:19.744Z,19.41
2022-08-11T00:15:19.746Z,19.38
2022-08-11T00:16:19.743Z,19.34
2022-08-11T00:17:19.769Z,19.31
2022-08-11T00:18:19.740Z,19.26
2022-08-11T00:19:19.744Z,19.22
2022-08-11T00:20:19.762Z,19.19
2022-08-11T00:21:19.756Z,19.16
2022-08-11T00:22:19.757Z,19.12
2022-08-11T00:23:19.848Z,19.08
2022-08-11T00:24:19.768Z,19.04
2022-08-11T00:25:19.766Z,19.02
2022-08-11T00:26:19.775Z,19.00
2022-08-11T00:27:19.760Z,18.96
2022-08-11T00:28:19.760Z,18.93
2022-08-11T00:29:19.779Z,18.91
2022-08-11T00:30:19.774Z,18.89
2022-08-11T00:31:19.776Z,18.86
2022-08-11T00:32:19.770Z,18.82
2022-08-11T00:33:19.759Z,18.80
2022-08-11T00:34:19.773Z,18.80
2022-08-11T00:35:54.468Z,18.78
2022-08-11T00:36:24.891Z,18.78
2022-08-11T00:37:19.771Z,18.77
2022-08-11T00:38:19.790Z,18.74
2022-08-11T00:39:19.821Z,18.71
2022-08-11T00:40:19.789Z,18.68
2022-08-11T00:41:19.770Z,18.62
2022-08-11T00:42:19.782Z,18.62
2022-08-11T00:43:20.712Z,18.58
2022-08-11T00:44:19.790Z,18.55
2022-08-11T00:45:19.780Z,18.53
2022-08-11T00:46:19.799Z,18.49
2022-08-11T00:47:19.795Z,18.46
2022-08-11T00:48:19.782Z,18.43
2022-08-11T00:49:19.797Z,18.41
2022-08-11T00:50:19.788Z,18.37
2022-08-11T00:51:19.801Z,18.34
2022-08-11T00:52:19.802Z,18.32
2022-08-11T00:53:19.805Z,18.29
2022-08-11T00:54:19.808Z,18.27
2022-08-11T00:55:19.791Z,18.24
2022-08-11T00:56:19.780Z,18.23
2022-08-11T00:57:36.628Z,18.20
2022-08-11T00:58:21.870Z,18.17
2022-08-11T00:59:35.587Z,18.14
2022-08-11T01:00:19.804Z,18.10
2022-08-11T01:01:19.888Z,18.06
2022-08-11T01:02:19.813Z,18.04
2022-08-11T01:03:19.848Z,17.99
2022-08-11T01:04:19.813Z,17.96
2022-08-11T01:05:19.820Z,17.93
2022-08-11T01:06:19.804Z,17.89
2022-08-11T01:08:02.433Z,17.87
2022-08-11T01:08:19.826Z,17.84
2022-08-11T01:09:22.227Z,17.80
2022-08-11T01:10:19.863Z,17.77
2022-08-11T01:11:19.843Z,17.74
2022-08-11T01:12:19.850Z,17.71
2022-08-11T01:13:19.852Z,17.69
2022-08-11T01:14:33.950Z,17.67
2022-08-11T01:15:19.851Z,17.65
2022-08-11T01:16:19.867Z,17.61
2022-08-11T01:17:19.857Z,17.59
2022-08-11T01:18:19.863Z,17.57
2022-08-11T01:19:19.852Z,17.55
2022-08-11T01:20:47.464Z,17.53
2022-08-11T01:21:19.863Z,17.51
2022-08-11T01:22:19.851Z,17.48
2022-08-11T01:23:19.854Z,17.48
2022-08-11T01:24:19.853Z,17.46
2022-08-11T01:25:19.847Z,17.44
2022-08-11T01:26:19.850Z,17.42
2022-08-11T01:27:20.115Z,17.40
2022-08-11T01:28:19.836Z,17.37
2022-08-11T01:29:19.860Z,17.36
2022-08-11T01:30:19.854Z,17.34
2022-08-11T01:31:19.851Z,17.32
2022-08-11T01:32:19.843Z,17.29
2022-08-11T01:33:19.898Z,17.28
2022-08-11T01:34:19.864Z,17.25
2022-08-11T01:35:19.855Z,17.22
2022-08-11T01:36:19.862Z,17.18
2022-08-11T01:37:19.851Z,17.16
2022-08-11T01:38:19.860Z,17.13
2022-08-11T01:39:19.937Z,17.11
2022-08-11T01:40:19.865Z,17.09
2022-08-11T01:41:19.865Z,17.07
2022-08-11T01:42:19.868Z,17.03
2022-08-11T01:43:19.890Z,17.01
2022-08-11T01:44:19.894Z,16.97
2022-08-11T01:45:19.922Z,16.96
2022-08-11T01:46:19.908Z,16.94
2022-08-11T01:47:19.928Z,16.94
2022-08-11T01:48:19.960Z,16.90
2022-08-11T01:50:06.409Z,16.88
2022-08-11T01:50:19.964Z,16.86
2022-08-11T01:51:19.949Z,16.83
2022-08-11T01:52:19.966Z,16.79
2022-08-11T01:53:19.945Z,16.75
2022-08-11T01:54:19.972Z,16.72
2022-08-11T01:55:19.954Z,16.70
2022-08-11T01:56:19.959Z,16.69
2022-08-11T01:57:19.968Z,16.67
2022-08-11T01:58:19.945Z,16.64
2022-08-11T01:59:19.975Z,16.62
2022-08-11T02:00:19.965Z,16.58
2022-08-11T02:01:20.018Z,16.55
2022-08-11T02:02:21.521Z,16.53
2022-08-11T02:03:19.986Z,16.50
2022-08-11T02:04:19.975Z,16.48
2022-08-11T02:05:19.978Z,16.44
2022-08-11T02:06:19.974Z,16.40
2022-08-11T02:07:19.976Z,16.38
2022-08-11T02:08:19.976Z,16.36
2022-08-11T02:09:19.992Z,16.35
2022-08-11T02:10:19.983Z,16.34
2022-08-11T02:11:19.984Z,16.32
2022-08-11T02:12:19.978Z,16.31
2022-08-11T02:13:35.374Z,16.31
2022-08-11T02:14:19.986Z,16.29
2022-08-11T02:15:20.009Z,16.26
2022-08-11T02:16:20.039Z,16.26
2022-08-11T02:17:19.997Z,16.25
2022-08-11T02:18:19.990Z,16.24
2022-08-11T02:19:19.982Z,16.23
2022-08-11T02:20:19.993Z,16.22
2022-08-11T02:21:19.983Z,16.22
2022-08-11T02:22:19.992Z,16.20
2022-08-11T02:23:58.743Z,16.20
2022-08-11T02:24:19.997Z,16.19
2022-08-11T02:25:19.992Z,16.19
2022-08-11T02:26:19.992Z,16.19
2022-08-11T02:27:19.988Z,16.18
2022-08-11T02:28:19.998Z,16.17
2022-08-11T02:29:20.024Z,16.16
2022-08-11T02:30:20.003Z,16.14
2022-08-11T02:32:25.881Z,16.13
2022-08-11T02:32:29.786Z,16.12
2022-08-11T02:33:19.994Z,16.07
2022-08-11T02:34:20.001Z,16.05
2022-08-11T02:35:20.013Z,16.03
2022-08-11T02:36:20.019Z,16.03
2022-08-11T02:37:23.530Z,16.02
2022-08-11T02:38:20.030Z,16.02
2022-08-11T02:39:20.056Z,16.01
2022-08-11T02:40:20.036Z,15.98
2022-08-11T02:41:20.091Z,15.93
2022-08-11T02:42:42.387Z,15.91
2022-08-11T02:43:20.029Z,15.89
2022-08-11T02:44:20.030Z,15.89
2022-08-11T02:45:20.028Z,15.88
2022-08-11T02:46:20.023Z,15.89
2022-08-11T02:47:20.021Z,15.89
2022-08-11T02:48:20.020Z,15.87
2022-08-11T02:49:20.031Z,15.87
2022-08-11T02:50:20.038Z,15.85
2022-08-11T02:51:22.101Z,15.83
2022-08-11T02:52:20.033Z,15.81
2022-08-11T02:53:20.035Z,15.76
2022-08-11T02:55:48.841Z,15.71
2022-08-11T02:56:20.028Z,15.69
2022-08-11T02:57:20.044Z,15.65
2022-08-11T02:58:22.103Z,15.61
2022-08-11T02:59:20.056Z,15.59
2022-08-11T03:01:20.098Z,15.55
2022-08-11T03:02:20.042Z,15.51
2022-08-11T03:03:20.041Z,15.49
2022-08-11T03:04:20.040Z,15.46
2022-08-11T03:06:20.030Z,15.40
2022-08-11T03:07:28.638Z,15.37
2022-08-11T03:08:20.028Z,15.36
2022-08-11T03:09:20.051Z,15.33
2022-08-11T03:11:20.046Z,15.25
2022-08-11T03:12:20.053Z,15.22
2022-08-11T03:13:20.068Z,15.20
2022-08-11T03:14:20.053Z,15.17
2022-08-11T03:16:20.051Z,15.14
2022-08-11T03:17:20.045Z,15.14
2022-08-11T03:18:20.070Z,15.13
2022-08-11T03:19:20.104Z,15.10
2022-08-11T03:21:20.068Z,15.06
2022-08-11T03:22:20.053Z,15.03
2022-08-11T03:23:20.643Z,15.01
2022-08-11T03:24:20.056Z,14.99
2022-08-11T03:26:20.055Z,14.93
2022-08-11T03:27:20.077Z,14.90
2022-08-11T03:28:20.068Z,14.89
2022-08-11T03:29:25.219Z,14.86
2022-08-11T03:31:20.071Z,14.83
2022-08-11T03:32:20.069Z,14.82
2022-08-11T03:33:20.072Z,14.80
2022-08-11T03:34:20.063Z,14.80
2022-08-11T03:36:20.082Z,14.79
2022-08-11T03:37:20.089Z,14.78
2022-08-11T03:38:20.076Z,14.73
2022-08-11T03:39:20.141Z,14.69
2022-08-11T03:41:50.037Z,14.65
2022-08-11T03:42:20.076Z,14.62
2022-08-11T03:43:20.098Z,14.60
2022-08-11T03:44:20.071Z,14.60
2022-08-11T03:45:20.093Z,14.58
2022-08-11T03:47:20.079Z,14.55
2022-08-11T03:48:20.083Z,14.54
2022-08-11T03:49:20.088Z,14.53
2022-08-11T03:50:20.103Z,14.52
2022-08-11T03:52:20.104Z,14.50
2022-08-11T03:53:20.107Z,14.49
2022-08-11T03:54:20.091Z,14.48
2022-08-11T03:55:20.094Z,14.46
2022-08-11T03:57:20.108Z,14.44
2022-08-11T03:58:20.101Z,14.42
2022-08-11T03:59:20.103Z,14.43
2022-08-11T04:00:20.105Z,14.39
2022-08-11T04:02:20.113Z,14.36
2022-08-11T04:03:20.115Z,14.33
2022-08-11T04:04:20.119Z,14.30
2022-08-11T04:05:20.106Z,14.28
2022-08-11T04:07:20.147Z,14.24
2022-08-11T04:08:20.108Z,14.24
2022-08-11T04:09:20.123Z,14.23
2022-08-11T04:10:20.134Z,14.22
2022-08-11T04:12:36.469Z,14.18
2022-08-11T04:13:20.142Z,14.17
2022-08-11T04:14:20.113Z,14.17
2022-08-11T04:15:20.122Z,14.14
2022-08-11T04:17:22.713Z,14.14
2022-08-11T04:18:20.117Z,14.13
2022-08-11T04:19:20.134Z,14.11
2022-08-11T04:20:20.122Z,14.11
2022-08-11T04:22:20.136Z,14.08
2022-08-11T04:24:35.793Z,14.08
2022-08-11T04:24:38.205Z,14.05
2022-08-11T04:25:20.151Z,14.05
2022-08-11T04:27:20.143Z,14.04
2022-08-11T04:28:28.908Z,14.05
2022-08-11T04:29:20.134Z,14.05
2022-08-11T04:30:20.138Z,14.03
2022-08-11T04:32:20.142Z,14.04
2022-08-11T04:33:20.156Z,14.05
2022-08-11T04:34:20.137Z,14.05
2022-08-11T04:35:20.137Z,14.05
2022-08-11T04:37:20.143Z,14.05
2022-08-11T04:38:20.156Z,14.04
2022-08-11T04:39:20.325Z,14.05
2022-08-11T04:40:20.167Z,14.05
2022-08-11T04:42:20.151Z,14.06
2022-08-11T04:43:20.148Z,14.07
2022-08-11T04:44:20.163Z,14.07
2022-08-11T04:45:20.170Z,14.06
2022-08-11T04:47:20.153Z,14.08
2022-08-11T04:48:20.151Z,14.07
2022-08-11T04:49:25.538Z,14.06
2022-08-11T04:50:20.168Z,14.07
2022-08-11T04:52:20.214Z,14.05
2022-08-11T04:53:20.158Z,14.01
2022-08-11T04:54:22.217Z,13.98
2022-08-11T04:55:20.168Z,13.98
2022-08-11T04:57:20.179Z,14.00
2022-08-11T04:58:20.171Z,13.97
2022-08-11T04:59:20.168Z,13.96
2022-08-11T05:00:20.170Z,13.96
2022-08-11T05:02:20.219Z,13.97
2022-08-11T05:03:20.169Z,13.99
2022-08-11T05:04:20.185Z,14.01
2022-08-11T05:05:20.201Z,14.03
2022-08-11T05:07:20.178Z,14.03
2022-08-11T05:08:23.843Z,14.05
2022-08-11T05:09:20.186Z,14.07
2022-08-11T05:10:20.166Z,14.06
2022-08-11T05:12:20.180Z,14.07
2022-08-11T05:13:20.183Z,14.09
2022-08-11T05:14:20.177Z,14.10
2022-08-11T05:15:20.208Z,14.12
2022-08-11T05:17:20.189Z,14.16
2022-08-11T05:18:20.193Z,14.17
2022-08-11T05:19:20.182Z,14.17
2022-08-11T05:20:20.186Z,14.20
2022-08-11T05:22:20.196Z,14.24
2022-08-11T05:23:20.204Z,14.28
2022-08-11T05:24:20.212Z,14.33
2022-08-11T05:26:42.595Z,14.38
2022-08-11T05:27:20.218Z,14.49
2022-08-11T05:28:20.209Z,14.54
2022-08-11T05:29:20.939Z,14.61
2022-08-11T05:30:20.188Z,14.65
2022-08-11T05:32:20.207Z,14.72
2022-08-11T05:33:20.208Z,14.75
2022-08-11T05:34:20.213Z,14.78
2022-08-11T05:36:02.399Z,14.81
2022-08-11T05:37:26.669Z,14.87
2022-08-11T05:38:20.229Z,14.90
2022-08-11T05:39:20.232Z,14.92
2022-08-11T05:40:20.215Z,14.94
2022-08-11T05:42:20.855Z,14.98
2022-08-11T05:43:20.224Z,15.03
2022-08-11T05:44:22.237Z,15.07
2022-08-11T05:45:20.224Z,15.12
2022-08-11T05:47:20.207Z,15.21
2022-08-11T05:48:20.232Z,15.25
2022-08-11T05:49:20.222Z,15.32
2022-08-11T05:50:30.991Z,15.37
2022-08-11T05:52:20.233Z,15.47
2022-08-11T05:53:20.248Z,15.53
2022-08-11T05:54:28.545Z,15.58
2022-08-11T05:55:20.250Z,15.65
2022-08-11T05:57:48.317Z,15.75
2022-08-11T05:58:20.240Z,15.81
2022-08-11T05:59:20.234Z,15.86
2022-08-11T06:00:20.253Z,15.91
2022-08-11T06:02:20.247Z,16.01
2022-08-11T06:03:20.245Z,16.06
2022-08-11T06:04:20.243Z,16.13
2022-08-11T06:05:20.233Z,16.19
2022-08-11T06:07:20.244Z,16.29
2022-08-11T06:08:20.246Z,16.36
2022-08-11T06:09:20.257Z,16.40
2022-08-11T06:10:20.250Z,16.45
2022-08-11T06:12:20.250Z,16.53
2022-08-11T06:13:20.283Z,16.57
2022-08-11T06:14:20.260Z,16.62
2022-08-11T06:15:20.255Z,16.67
2022-08-11T06:17:20.256Z,16.75
2022-08-11T06:18:20.309Z,16.82
2022-08-11T06:19:20.301Z,16.89
2022-08-11T06:20:20.264Z,16.93
2022-08-11T06:22:20.271Z,17.02
2022-08-11T06:23:20.287Z,17.06
2022-08-11T06:24:20.283Z,17.10
2022-08-11T06:25:20.273Z,17.14
2022-08-11T06:27:20.264Z,17.23
2022-08-11T06:28:21.099Z,17.31
2022-08-11T06:29:20.280Z,17.37
2022-08-11T06:30:20.297Z,17.43
2022-08-11T06:32:20.279Z,17.57
2022-08-11T06:33:20.282Z,17.65
2022-08-11T06:34:27.425Z,17.73
2022-08-11T06:35:20.274Z,17.79
2022-08-11T06:37:20.279Z,17.96
2022-08-11T06:38:20.288Z,18.05
2022-08-11T06:39:20.440Z,18.13
2022-08-11T06:40:20.336Z,18.25
2022-08-11T06:42:20.290Z,18.57
2022-08-11T06:43:20.313Z,18.82
2022-08-11T06:44:20.280Z,19.06
2022-08-11T06:45:20.298Z,19.32
2022-08-11T06:47:20.291Z,19.82
2022-08-11T06:48:20.299Z,20.06
2022-08-11T06:49:20.304Z,20.27
2022-08-11T06:50:20.291Z,20.49
2022-08-11T06:52:41.225Z,21.00
2022-08-11T06:53:20.310Z,21.19
2022-08-11T06:54:20.297Z,21.44
2022-08-11T06:55:56.858Z,21.69
2022-08-11T06:57:30.705Z,22.00
2022-08-11T06:58:20.318Z,22.14
2022-08-11T06:59:20.314Z,22.37
2022-08-11T07:00:20.352Z,22.63
2022-08-11T07:02:20.312Z,22.99
2022-08-11T07:03:20.322Z,23.13
2022-08-11T07:04:20.332Z,23.29
2022-08-11T07:05:20.312Z,23.47
2022-08-11T07:07:20.328Z,23.66
2022-08-11T07:08:34.040Z,23.82
2022-08-11T07:09:20.324Z,24.00
2022-08-11T07:10:20.330Z,24.21
2022-08-11T07:12:20.326Z,24.42
2022-08-11T07:13:44.461Z,24.45
2022-08-11T07:14:20.341Z,24.44
2022-08-11T07:15:20.332Z,24.45
2022-08-11T07:17:20.333Z,24.52
2022-08-11T07:18:20.364Z,24.62
2022-08-11T07:19:20.334Z,24.61
2022-08-11T07:20:20.328Z,24.59
2022-08-11T07:22:20.960Z,24.75
2022-08-11T07:23:20.383Z,24.92
2022-08-11T07:24:20.351Z,25.17
2022-08-11T07:25:20.345Z,25.43
2022-08-11T07:27:20.343Z,25.81
2022-08-11T07:28:20.354Z,25.88
2022-08-11T07:29:20.349Z,25.91
2022-08-11T07:30:20.335Z,26.05
2022-08-11T07:32:20.350Z,26.34
2022-08-11T07:34:05.045Z,26.48
2022-08-11T07:34:20.362Z,26.61
2022-08-11T07:35:20.376Z,26.71
2022-08-11T07:36:20.354Z,26.73
2022-08-11T07:38:22.834Z,26.85
2022-08-11T07:39:20.403Z,26.90
2022-08-11T07:40:20.367Z,26.91
2022-08-11T07:41:20.362Z,26.99
2022-08-11T07:43:20.380Z,27.04
2022-08-11T07:44:20.396Z,27.32
2022-08-11T07:45:20.391Z,27.70
2022-08-11T07:46:20.362Z,28.13
2022-08-11T07:48:20.388Z,27.84
2022-08-11T07:49:20.374Z,27.53
2022-08-11T07:50:20.383Z,27.45
2022-08-11T07:51:20.383Z,27.41
2022-08-11T07:53:20.382Z,27.70
2022-08-11T07:54:20.391Z,27.74
2022-08-11T07:55:20.407Z,27.74
2022-08-11T07:56:21.860Z,27.77
2022-08-11T07:58:20.464Z,28.05
2022-08-11T07:59:20.403Z,27.99
2022-08-11T08:00:20.384Z,28.23
2022-08-11T08:01:22.276Z,28.32
2022-08-11T08:03:20.397Z,28.92
2022-08-11T08:04:20.406Z,28.95
2022-08-11T08:05:20.386Z,29.15
2022-08-11T08:06:36.296Z,29.53
2022-08-11T08:08:20.404Z,29.90
2022-08-11T08:09:20.410Z,29.94
2022-08-11T08:10:20.412Z,29.92
2022-08-11T08:11:27.160Z,29.50
2022-08-11T08:13:20.417Z,29.55
2022-08-11T08:14:20.419Z,29.49
2022-08-11T08:15:20.421Z,29.54
2022-08-11T08:16:20.400Z,29.73
2022-08-11T08:18:26.751Z,30.05
2022-08-11T08:19:20.432Z,30.03
2022-08-11T08:20:20.437Z,29.53
2022-08-11T08:21:20.463Z,29.48
2022-08-11T08:23:20.415Z,29.75
2022-08-11T08:24:20.417Z,29.68
2022-08-11T08:25:20.449Z,29.75
2022-08-11T08:26:20.435Z,29.43
2022-08-11T08:28:20.439Z,28.99
2022-08-11T08:29:20.431Z,29.14
2022-08-11T08:30:20.446Z,29.18
2022-08-11T08:31:20.456Z,29.04
2022-08-11T08:32:47.489Z,29.22
2022-08-11T08:33:47.474Z,29.12
2022-08-11T08:34:47.517Z,29.13
2022-08-11T08:35:55.606Z,29.19
2022-08-11T08:36:47.492Z,29.16
2022-08-11T08:37:47.911Z,29.20
2022-08-11T08:38:47.478Z,29.20
2022-08-11T08:39:47.529Z,29.15
2022-08-11T08:40:47.482Z,29.31
2022-08-11T08:41:47.479Z,29.59
2022-08-11T08:42:47.679Z,29.74
2022-08-11T08:43:49.131Z,30.01
2022-08-11T08:44:47.491Z,30.21
2022-08-11T08:45:47.482Z,30.32
2022-08-11T08:46:47.490Z,30.49
2022-08-11T08:47:49.909Z,30.46
2022-08-11T08:48:47.496Z,30.45
2022-08-11T08:49:47.496Z,30.43
2022-08-11T08:50:47.515Z,30.29
2022-08-11T08:51:56.992Z,30.24
2022-08-11T08:52:47.785Z,30.08
2022-08-11T08:53:52.433Z,29.92
2022-08-11T08:54:47.503Z,29.82
2022-08-11T08:55:47.520Z,29.93
2022-08-11T08:56:47.532Z,30.15
2022-08-11T08:57:47.498Z,30.30
2022-08-11T08:58:47.521Z,30.38
2022-08-11T08:59:49.524Z,30.30
2022-08-11T09:00:47.516Z,30.31
2022-08-11T09:01:47.561Z,30.11
2022-08-11T09:02:47.730Z,29.98
2022-08-11T09:04:06.605Z,29.95
2022-08-11T09:04:47.543Z,29.86
2022-08-11T09:05:47.534Z,29.76
2022-08-11T09:06:50.132Z,29.79
2022-08-11T09:07:47.534Z,29.85
2022-08-11T09:08:49.642Z,29.92
2022-08-11T09:09:47.670Z,29.98
2022-08-11T09:10:47.683Z,30.11
2022-08-11T09:11:47.704Z,30.04
2022-08-11T09:12:47.890Z,30.09
2022-08-11T09:14:05.120Z,29.90
2022-08-11T09:14:47.784Z,29.87
2022-08-11T09:15:47.717Z,29.90
2022-08-11T09:16:47.736Z,30.13
2022-08-11T09:17:47.735Z,30.24
2022-08-11T09:18:47.727Z,30.26
2022-08-11T09:19:54.126Z,30.24
2022-08-11T09:20:47.713Z,30.28
2022-08-11T09:21:49.579Z,30.21
2022-08-11T09:22:47.775Z,30.00
2022-08-11T09:24:07.723Z,29.93
2022-08-11T09:24:47.816Z,30.02
2022-08-11T09:25:47.803Z,30.06
2022-08-11T09:26:47.795Z,30.15
2022-08-11T09:27:50.422Z,30.19
2022-08-11T09:28:47.779Z,30.34
2022-08-11T09:29:47.818Z,30.44
2022-08-11T09:30:47.796Z,30.62
2022-08-11T09:31:47.789Z,30.83
2022-08-11T09:32:47.793Z,31.03
2022-08-11T09:33:47.813Z,30.93
2022-08-11T09:34:47.835Z,30.48
2022-08-11T09:35:47.844Z,30.29
2022-08-11T09:36:47.865Z,30.36
2022-08-11T09:37:55.239Z,30.52
2022-08-11T09:38:49.579Z,30.64
2022-08-11T09:39:47.953Z,30.77
2022-08-11T09:40:56.256Z,31.00
2022-08-11T09:42:00.925Z,31.19
2022-08-11T09:42:47.863Z,31.42
2022-08-11T09:43:47.880Z,31.58
2022-08-11T09:44:48.979Z,31.42
2022-08-11T09:45:47.895Z,31.26
2022-08-11T09:46:47.891Z,31.37
2022-08-11T09:47:47.903Z,31.41
2022-08-11T09:48:47.888Z,31.44
2022-08-11T09:49:47.893Z,31.43
2022-08-11T09:50:47.889Z,31.53
2022-08-11T09:52:02.239Z,31.43
2022-08-11T09:53:10.036Z,31.48
2022-08-11T09:54:02.876Z,31.67
2022-08-11T09:54:48.089Z,31.70
2022-08-11T09:55:47.889Z,31.60
2022-08-11T09:56:47.908Z,31.47
2022-08-11T09:57:47.899Z,31.54
2022-08-11T09:58:47.900Z,31.53
2022-08-11T09:59:47.928Z,31.53
2022-08-11T10:00:47.979Z,31.49
2022-08-11T10:01:47.976Z,31.62
2022-08-11T10:02:47.913Z,31.84
2022-08-11T10:03:47.906Z,31.90
2022-08-11T10:04:47.949Z,32.00
2022-08-11T10:05:47.957Z,32.12
2022-08-11T10:06:47.956Z,32.20
2022-08-11T10:07:47.957Z,32.33
2022-08-11T10:08:47.956Z,32.40
2022-08-11T10:09:47.959Z,32.47
2022-08-11T10:10:47.973Z,32.64
2022-08-11T10:11:57.729Z,32.89
2022-08-11T10:12:47.971Z,33.18
2022-08-11T10:14:30.985Z,33.54
2022-08-11T10:14:48.027Z,33.76
2022-08-11T10:16:14.701Z,33.75
2022-08-11T10:16:47.966Z,33.73
2022-08-11T10:17:47.977Z,33.59
2022-08-11T10:18:47.955Z,33.49
2022-08-11T10:19:48.907Z,33.35
2022-08-11T10:20:47.972Z,32.60
2022-08-11T10:21:47.975Z,32.33
2022-08-11T10:22:47.980Z,32.30
2022-08-11T10:24:01.382Z,32.38
2022-08-11T10:24:47.988Z,32.04
2022-08-11T10:25:47.969Z,32.09
2022-08-11T10:26:47.983Z,32.28
2022-08-11T10:28:33.155Z,32.45
2022-08-11T10:29:11.699Z,32.37
2022-08-11T10:29:49.870Z,32.38
2022-08-11T10:30:47.986Z,32.44
2022-08-11T10:31:57.799Z,32.47
2022-08-11T10:32:59.498Z,32.56
2022-08-11T10:33:57.592Z,32.72
2022-08-11T10:34:51.271Z,32.88
2022-08-11T10:35:48.046Z,32.87
2022-08-11T10:36:47.992Z,32.78
2022-08-11T10:38:07.828Z,32.71
2022-08-11T10:38:47.995Z,32.68
2022-08-11T10:39:48.042Z,32.45
2022-08-11T10:40:48.012Z,32.64
2022-08-11T10:42:06.711Z,32.75
2022-08-11T10:42:57.673Z,32.69
2022-08-11T10:44:01.392Z,32.79
2022-08-11T10:44:48.003Z,32.62
2022-08-11T10:45:48.132Z,32.50
2022-08-11T10:46:48.003Z,32.39
2022-08-11T10:47:49.778Z,32.45
2022-08-11T10:48:47.995Z,32.44
2022-08-11T10:49:48.006Z,32.38
2022-08-11T10:50:48.020Z,32.60
2022-08-11T10:51:51.543Z,32.69
2022-08-11T10:52:48.013Z,32.90
2022-08-11T10:53:48.013Z,33.14
2022-08-11T10:54:48.011Z,33.25
2022-08-11T10:55:48.077Z,33.53
2022-08-11T10:56:48.043Z,33.51
2022-08-11T10:58:04.952Z,33.61
2022-08-11T10:58:48.031Z,33.90
2022-08-11T10:59:48.022Z,33.74
2022-08-11T11:00:48.074Z,33.93
2022-08-11T11:01:48.046Z,33.77
2022-08-11T11:03:23.412Z,33.62
2022-08-11T11:03:48.040Z,33.52
2022-08-11T11:04:50.965Z,33.07
2022-08-11T11:06:12.726Z,33.07
2022-08-11T11:06:48.069Z,32.98
2022-08-11T11:07:48.039Z,32.84
2022-08-11T11:09:48.055Z,33.09
2022-08-11T11:10:48.036Z,33.30
2022-08-11T11:11:48.055Z,33.35
2022-08-11T11:12:48.064Z,33.65
2022-08-11T11:13:53.347Z,33.87
2022-08-11T11:14:49.811Z,34.18
2022-08-11T11:15:48.042Z,34.30
2022-08-11T11:16:48.059Z,34.26
2022-08-11T11:17:48.086Z,33.66
2022-08-11T11:18:48.072Z,33.48
2022-08-11T11:19:48.064Z,33.50
2022-08-11T11:20:48.089Z,33.65
2022-08-11T11:21:48.067Z,33.92
2022-08-11T11:22:48.089Z,34.21
2022-08-11T11:23:48.067Z,34.35
2022-08-11T11:24:48.073Z,34.40
2022-08-11T11:25:48.068Z,34.07
2022-08-11T11:26:48.069Z,34.06
2022-08-11T11:27:48.072Z,34.15
2022-08-11T11:28:48.066Z,34.17
2022-08-11T11:29:48.086Z,33.87
2022-08-11T11:30:48.076Z,33.62
2022-08-11T11:31:48.105Z,33.57
2022-08-11T11:32:49.864Z,33.82
2022-08-11T11:33:57.399Z,34.12
2022-08-11T11:34:53.606Z,34.22
2022-08-11T11:35:48.097Z,34.01
2022-08-11T11:36:48.123Z,33.33
2022-08-11T11:38:04.176Z,33.09
2022-08-11T11:38:48.119Z,33.21
2022-08-11T11:39:48.183Z,33.52
2022-08-11T11:40:48.097Z,33.94
2022-08-11T11:41:48.134Z,34.30
2022-08-11T11:42:48.114Z,34.44
2022-08-11T11:43:48.124Z,34.58
2022-08-11T11:44:48.129Z,34.48
2022-08-11T11:45:48.123Z,34.37
2022-08-11T11:46:48.139Z,34.09
2022-08-11T11:47:48.116Z,34.30
2022-08-11T11:48:48.136Z,34.21
2022-08-11T11:49:48.131Z,34.20
2022-08-11T11:50:48.140Z,34.26
2022-08-11T11:51:49.942Z,34.47
2022-08-11T11:52:48.177Z,34.64
2022-08-11T11:53:48.149Z,34.77
2022-08-11T11:54:48.180Z,35.05
2022-08-11T11:55:48.178Z,35.09
2022-08-11T11:56:48.187Z,35.14
2022-08-11T11:57:59.359Z,35.17
2022-08-11T11:58:48.210Z,35.07
2022-08-11T11:59:48.210Z,34.99
2022-08-11T12:00:48.195Z,34.95
2022-08-11T12:01:50.136Z,34.68
2022-08-11T12:02:48.261Z,34.69
2022-08-11T12:03:48.221Z,35.00
2022-08-11T12:04:48.201Z,35.38
2022-08-11T12:05:48.217Z,35.53
2022-08-11T12:06:48.227Z,35.56
2022-08-11T12:07:56.839Z,35.72
2022-08-11T12:08:48.220Z,35.78
2022-08-11T12:09:48.224Z,36.00
2022-08-11T12:10:48.267Z,35.91
2022-08-11T12:11:48.232Z,35.75
2022-08-11T12:12:48.216Z,35.73
2022-08-11T12:13:48.239Z,35.78
2022-08-11T12:14:48.219Z,35.91
2022-08-11T12:16:31.823Z,36.14
2022-08-11T12:16:48.249Z,36.28
2022-08-11T12:17:52.426Z,36.40
2022-08-11T12:18:48.233Z,36.43
2022-08-11T12:19:48.705Z,36.19
2022-08-11T12:20:48.241Z,36.10
2022-08-11T12:21:51.367Z,36.03
2022-08-11T12:22:48.236Z,36.16
2022-08-11T12:23:48.245Z,36.35
2022-08-11T12:24:48.246Z,36.61
2022-08-11T12:25:50.063Z,36.99
2022-08-11T12:27:15.325Z,37.37
2022-08-11T12:27:48.251Z,37.64
2022-08-11T12:28:48.241Z,37.90
2022-08-11T12:29:54.543Z,38.15
2022-08-11T12:30:50.751Z,38.03
2022-08-11T12:31:48.253Z,37.30
2022-08-11T12:32:48.269Z,36.98
2022-08-11T12:33:48.266Z,36.66
2022-08-11T12:34:48.261Z,36.37
2022-08-11T12:36:01.213Z,36.01
2022-08-11T12:36:48.269Z,36.18
2022-08-11T12:37:48.270Z,36.49
2022-08-11T12:38:51.310Z,36.67
2022-08-11T12:40:16.002Z,36.70
2022-08-11T12:41:11.921Z,36.96
2022-08-11T12:41:48.326Z,37.11
2022-08-11T12:42:48.311Z,36.95
2022-08-11T12:43:57.217Z,36.81
2022-08-11T12:44:48.275Z,36.89
2022-08-11T12:45:48.270Z,36.94
2022-08-11T12:46:48.286Z,37.10
2022-08-11T12:48:07.664Z,36.55
2022-08-11T12:49:00.374Z,36.17
2022-08-11T12:49:48.281Z,36.09
2022-08-11T12:50:48.282Z,35.92
2022-08-11T12:52:06.743Z,35.65
2022-08-11T12:52:48.424Z,35.52
2022-08-11T12:53:48.290Z,35.51
2022-08-11T12:54:48.285Z,35.55
2022-08-11T12:56:03.337Z,35.40
2022-08-11T12:56:48.279Z,35.38
2022-08-11T12:57:48.454Z,35.24
2022-08-11T12:58:48.298Z,35.23
2022-08-11T12:59:48.300Z,35.19
2022-08-11T13:00:48.392Z,35.19
2022-08-11T13:01:48.340Z,35.02
2022-08-11T13:02:48.286Z,35.13
2022-08-11T13:03:52.369Z,35.53
2022-08-11T13:04:50.075Z,35.80
2022-08-11T13:05:48.297Z,35.99
2022-08-11T13:06:48.327Z,36.27
2022-08-11T13:07:50.923Z,36.53
2022-08-11T13:08:48.322Z,36.73
2022-08-11T13:09:48.330Z,36.26
2022-08-11T13:10:48.316Z,35.95
2022-08-11T13:11:56.065Z,35.78
2022-08-11T13:12:48.327Z,35.67
2022-08-11T13:13:55.085Z,35.72
2022-08-11T13:14:48.327Z,35.83
2022-08-11T13:15:48.304Z,35.81
2022-08-11T13:16:48.344Z,35.85
2022-08-11T13:17:48.347Z,35.81
2022-08-11T13:18:48.333Z,35.51
2022-08-11T13:19:49.844Z,35.53
2022-08-11T13:20:48.330Z,35.70
2022-08-11T13:21:48.359Z,35.69
2022-08-11T13:22:48.352Z,35.64
2022-08-11T13:23:59.510Z,35.53
2022-08-11T13:24:48.338Z,35.54
2022-08-11T13:25:48.332Z,35.87
2022-08-11T13:26:50.330Z,35.97
2022-08-11T13:27:48.372Z,36.05
2022-08-11T13:28:48.340Z,36.05
2022-08-11T13:29:48.378Z,36.05
2022-08-11T13:30:48.342Z,35.68
2022-08-11T13:31:48.376Z,35.90
2022-08-11T13:32:48.355Z,36.19
2022-08-11T13:33:48.356Z,35.90
2022-08-11T13:34:48.370Z,35.76
2022-08-11T13:35:48.362Z,35.76
2022-08-11T13:36:48.380Z,35.91
2022-08-11T13:38:19.131Z,36.37
2022-08-11T13:38:50.057Z,36.67
2022-08-11T13:39:48.412Z,36.35
2022-08-11T13:40:55.557Z,36.12
2022-08-11T13:41:48.385Z,35.83
2022-08-11T13:42:48.371Z,35.60
2022-08-11T13:43:48.358Z,35.28
2022-08-11T13:44:48.386Z,35.42
2022-08-11T13:45:48.366Z,35.65
2022-08-11T13:46:48.392Z,35.93
2022-08-11T13:47:48.372Z,36.25
2022-08-11T13:48:48.384Z,36.41
2022-08-11T13:49:48.384Z,36.61
2022-08-11T13:50:48.395Z,36.95
2022-08-11T13:51:48.389Z,37.14
2022-08-11T13:52:52.688Z,37.18
2022-08-11T13:53:48.384Z,37.22
2022-08-11T13:54:48.441Z,37.50
2022-08-11T13:55:52.078Z,37.85
2022-08-11T13:56:48.405Z,38.28
2022-08-11T13:58:08.852Z,38.58
2022-08-11T13:58:48.413Z,38.79
2022-08-11T13:59:52.543Z,38.73
2022-08-11T14:00:52.655Z,38.51